Depew, New York
Current Conditions -  °F | °C
As of 5:54 AM on Tuesday 21 Oct 2014 (Local Time) from KBUF Reporting Station
Haze Haze  
Wind Chill: 50°   Ceiling: 2000
Heat Index: 50°   Visibility: 4mi
Dew Point: 48°   Wind: 3mph
Humidity: 93%   Direction: 280°W
Pressure: 29.78"   Gusts: NA
Location:  42.9°N, 78.69°W
Report Text: KBUF 210954Z 28003KT 4SM BR FEW007 OVC020 10/09 A2978 RMK AO2 RAB38E50 SLP087 P0000 T01000089
Loading
Personal Weather Stations






























Interactive Weather Map
Tropical Storm Tracking
New forecast layout! Learn more

10-Day Weather Forecast

Advertisements
Track Severe Weather on mobile